sensor_id;sensor_type;location;lat;lon;timestamp;P1;durP1;ratioP1;P2;durP2;ratioP2
39858;SDS011;25528;47.810;12.960;2022-07-10T00:01:51;3.08;;;2.05;;
39858;SDS011;25528;47.810;12.960;2022-07-10T00:04:17;2.13;;;1.80;;
39858;SDS011;25528;47.810;12.960;2022-07-10T00:06:44;2.17;;;1.77;;
39858;SDS011;25528;47.810;12.960;2022-07-10T00:09:12;2.30;;;1.80;;
39858;SDS011;25528;47.810;12.960;2022-07-10T00:11:38;2.22;;;1.90;;
39858;SDS011;25528;47.810;12.960;2022-07-10T00:14:04;2.50;;;1.80;;
39858;SDS011;25528;47.810;12.960;2022-07-10T00:16:30;2.67;;;2.03;;
39858;SDS011;25528;47.810;12.960;2022-07-10T00:18:56;2.40;;;2.10;;
39858;SDS011;25528;47.810;12.960;2022-07-10T00:21:22;2.10;;;1.90;;
39858;SDS011;25528;47.810;12.960;2022-07-10T00:23:49;4.00;;;2.28;;
39858;SDS011;25528;47.810;12.960;2022-07-10T00:26:15;2.17;;;1.97;;
39858;SDS011;25528;47.810;12.960;2022-07-10T00:28:42;2.50;;;2.10;;
39858;SDS011;25528;47.810;12.960;2022-07-10T00:31:09;2.45;;;2.20;;
39858;SDS011;25528;47.810;12.960;2022-07-10T00:33:36;2.15;;;1.80;;
39858;SDS011;25528;47.810;12.960;2022-07-10T00:36:06;2.75;;;1.83;;
39858;SDS011;25528;47.810;12.960;2022-07-10T00:38:33;2.72;;;1.90;;
39858;SDS011;25528;47.810;12.960;2022-07-10T00:40:59;2.50;;;2.20;;
39858;SDS011;25528;47.810;12.960;2022-07-10T00:43:26;2.85;;;1.92;;
39858;SDS011;25528;47.810;12.960;2022-07-10T00:45:53;3.03;;;2.10;;
39858;SDS011;25528;47.810;12.960;2022-07-10T00:48:21;2.50;;;1.83;;
39858;SDS011;25528;47.810;12.960;2022-07-10T00:50:47;2.22;;;2.00;;
39858;SDS011;25528;47.810;12.960;2022-07-10T00:53:12;2.53;;;2.00;;
39858;SDS011;25528;47.810;12.960;2022-07-10T00:55:39;2.28;;;1.90;;
39858;SDS011;25528;47.810;12.960;2022-07-10T00:58:06;2.78;;;2.00;;
39858;SDS011;25528;47.810;12.960;2022-07-10T01:00:33;2.40;;;1.80;;
39858;SDS011;25528;47.810;12.960;2022-07-10T01:03:04;2.65;;;1.90;;
39858;SDS011;25528;47.810;12.960;2022-07-10T01:05:30;2.50;;;1.88;;
39858;SDS011;25528;47.810;12.960;2022-07-10T01:07:57;2.33;;;1.80;;
39858;SDS011;25528;47.810;12.960;2022-07-10T01:10:23;2.03;;;1.60;;
39858;SDS011;25528;47.810;12.960;2022-07-10T01:12:50;3.45;;;1.98;;
39858;SDS011;25528;47.810;12.960;2022-07-10T01:15:16;2.47;;;1.95;;
39858;SDS011;25528;47.810;12.960;2022-07-10T01:17:42;3.55;;;2.30;;
39858;SDS011;25528;47.810;12.960;2022-07-10T01:20:08;2.10;;;1.90;;
39858;SDS011;25528;47.810;12.960;2022-07-10T01:22:38;2.00;;;1.70;;
39858;SDS011;25528;47.810;12.960;2022-07-10T01:25:04;2.47;;;2.00;;
39858;SDS011;25528;47.810;12.960;2022-07-10T01:27:31;2.67;;;1.85;;
39858;SDS011;25528;47.810;12.960;2022-07-10T01:29:57;2.72;;;1.70;;
39858;SDS011;25528;47.810;12.960;2022-07-10T01:32:23;2.15;;;1.92;;
39858;SDS011;25528;47.810;12.960;2022-07-10T01:34:51;2.55;;;2.00;;
39858;SDS011;25528;47.810;12.960;2022-07-10T01:37:16;1.98;;;1.75;;
39858;SDS011;25528;47.810;12.960;2022-07-10T01:39:42;2.07;;;1.80;;
39858;SDS011;25528;47.810;12.960;2022-07-10T01:42:08;2.30;;;2.05;;
39858;SDS011;25528;47.810;12.960;2022-07-10T01:44:34;2.90;;;1.95;;
39858;SDS011;25528;47.810;12.960;2022-07-10T01:47:00;2.55;;;1.98;;
39858;SDS011;25528;47.810;12.960;2022-07-10T01:49:27;2.15;;;1.80;;
39858;SDS011;25528;47.810;12.960;2022-07-10T01:51:53;2.35;;;2.00;;
39858;SDS011;25528;47.810;12.960;2022-07-10T01:54:19;2.67;;;1.90;;
39858;SDS011;25528;47.810;12.960;2022-07-10T01:56:45;2.25;;;1.92;;
39858;SDS011;25528;47.810;12.960;2022-07-10T01:59:12;2.33;;;2.13;;
39858;SDS011;25528;47.810;12.960;2022-07-10T02:01:38;2.15;;;1.85;;
39858;SDS011;25528;47.810;12.960;2022-07-10T02:04:03;2.38;;;1.77;;
39858;SDS011;25528;47.810;12.960;2022-07-10T02:06:48;2.30;;;2.10;;
39858;SDS011;25528;47.810;12.960;2022-07-10T02:09:14;2.55;;;2.15;;
39858;SDS011;25528;47.810;12.960;2022-07-10T02:11:40;2.28;;;2.05;;
39858;SDS011;25528;47.810;12.960;2022-07-10T02:14:06;2.53;;;2.03;;
39858;SDS011;25528;47.810;12.960;2022-07-10T02:16:33;2.60;;;2.20;;
39858;SDS011;25528;47.810;12.960;2022-07-10T02:19:01;2.20;;;2.00;;
39858;SDS011;25528;47.810;12.960;2022-07-10T02:21:27;2.20;;;2.00;;
39858;SDS011;25528;47.810;12.960;2022-07-10T02:23:53;2.10;;;1.90;;
39858;SDS011;25528;47.810;12.960;2022-07-10T02:26:19;2.90;;;2.10;;
39858;SDS011;25528;47.810;12.960;2022-07-10T02:28:45;2.53;;;1.80;;
39858;SDS011;25528;47.810;12.960;2022-07-10T02:31:11;2.10;;;1.90;;
39858;SDS011;25528;47.810;12.960;2022-07-10T02:33:37;2.35;;;2.15;;
39858;SDS011;25528;47.810;12.960;2022-07-10T02:36:03;2.85;;;2.10;;
39858;SDS011;25528;47.810;12.960;2022-07-10T02:38:31;2.40;;;2.20;;
39858;SDS011;25528;47.810;12.960;2022-07-10T02:40:57;2.50;;;2.20;;
39858;SDS011;25528;47.810;12.960;2022-07-10T02:43:23;2.35;;;2.15;;
39858;SDS011;25528;47.810;12.960;2022-07-10T02:45:49;2.20;;;1.98;;
39858;SDS011;25528;47.810;12.960;2022-07-10T02:48:15;2.20;;;2.00;;
39858;SDS011;25528;47.810;12.960;2022-07-10T02:50:41;2.10;;;1.90;;
39858;SDS011;25528;47.810;12.960;2022-07-10T02:53:07;2.30;;;2.10;;
39858;SDS011;25528;47.810;12.960;2022-07-10T02:55:33;2.45;;;2.10;;
39858;SDS011;25528;47.810;12.960;2022-07-10T02:57:59;2.22;;;2.03;;
39858;SDS011;25528;47.810;12.960;2022-07-10T03:00:25;2.30;;;2.10;;
39858;SDS011;25528;47.810;12.960;2022-07-10T03:02:52;2.10;;;1.90;;
39858;SDS011;25528;47.810;12.960;2022-07-10T03:05:19;2.43;;;2.00;;
39858;SDS011;25528;47.810;12.960;2022-07-10T03:07:45;2.45;;;2.17;;
39858;SDS011;25528;47.810;12.960;2022-07-10T03:10:11;2.30;;;2.10;;
39858;SDS011;25528;47.810;12.960;2022-07-10T03:12:37;2.75;;;2.15;;
39858;SDS011;25528;47.810;12.960;2022-07-10T03:15:04;2.80;;;2.20;;
39858;SDS011;25528;47.810;12.960;2022-07-10T03:17:31;2.65;;;2.08;;
39858;SDS011;25528;47.810;12.960;2022-07-10T03:19:57;2.20;;;2.00;;
39858;SDS011;25528;47.810;12.960;2022-07-10T03:22:22;2.30;;;2.10;;
39858;SDS011;25528;47.810;12.960;2022-07-10T03:24:48;2.70;;;2.30;;
39858;SDS011;25528;47.810;12.960;2022-07-10T03:27:14;2.10;;;1.90;;
39858;SDS011;25528;47.810;12.960;2022-07-10T03:29:40;2.30;;;2.10;;
39858;SDS011;25528;47.810;12.960;2022-07-10T03:32:06;2.22;;;2.03;;
39858;SDS011;25528;47.810;12.960;2022-07-10T03:34:33;2.60;;;2.40;;
39858;SDS011;25528;47.810;12.960;2022-07-10T03:37:02;2.63;;;2.10;;
39858;SDS011;25528;47.810;12.960;2022-07-10T03:39:28;2.40;;;2.10;;
39858;SDS011;25528;47.810;12.960;2022-07-10T03:41:54;2.30;;;1.80;;
39858;SDS011;25528;47.810;12.960;2022-07-10T03:44:20;2.75;;;2.10;;
39858;SDS011;25528;47.810;12.960;2022-07-10T03:46:46;2.40;;;2.00;;
39858;SDS011;25528;47.810;12.960;2022-07-10T03:49:12;2.40;;;2.20;;
39858;SDS011;25528;47.810;12.960;2022-07-10T03:51:37;2.53;;;2.20;;
39858;SDS011;25528;47.810;12.960;2022-07-10T03:54:03;2.05;;;1.85;;
39858;SDS011;25528;47.810;12.960;2022-07-10T03:56:29;2.33;;;2.00;;
39858;SDS011;25528;47.810;12.960;2022-07-10T03:59:13;2.38;;;2.17;;
39858;SDS011;25528;47.810;12.960;2022-07-10T04:01:39;2.00;;;1.80;;
39858;SDS011;25528;47.810;12.960;2022-07-10T04:04:05;2.60;;;2.40;;
39858;SDS011;25528;47.810;12.960;2022-07-10T04:06:32;2.50;;;2.03;;
39858;SDS011;25528;47.810;12.960;2022-07-10T04:08:58;2.25;;;2.05;;
39858;SDS011;25528;47.810;12.960;2022-07-10T04:11:24;2.20;;;2.00;;
39858;SDS011;25528;47.810;12.960;2022-07-10T04:13:49;2.38;;;1.98;;
39858;SDS011;25528;47.810;12.960;2022-07-10T04:16:15;2.13;;;1.92;;
39858;SDS011;25528;47.810;12.960;2022-07-10T04:18:43;2.22;;;2.03;;
39858;SDS011;25528;47.810;12.960;2022-07-10T04:21:09;2.13;;;1.92;;
39858;SDS011;25528;47.810;12.960;2022-07-10T04:23:35;2.22;;;2.03;;
39858;SDS011;25528;47.810;12.960;2022-07-10T04:26:01;2.60;;;2.40;;
39858;SDS011;25528;47.810;12.960;2022-07-10T04:28:27;2.30;;;2.10;;
39858;SDS011;25528;47.810;12.960;2022-07-10T04:30:53;2.72;;;2.00;;
39858;SDS011;25528;47.810;12.960;2022-07-10T04:33:20;2.63;;;2.10;;
39858;SDS011;25528;47.810;12.960;2022-07-10T04:35:47;2.55;;;2.05;;
39858;SDS011;25528;47.810;12.960;2022-07-10T04:38:13;2.25;;;2.05;;
39858;SDS011;25528;47.810;12.960;2022-07-10T04:40:39;2.75;;;2.05;;
39858;SDS011;25528;47.810;12.960;2022-07-10T04:43:05;2.38;;;2.17;;
39858;SDS011;25528;47.810;12.960;2022-07-10T04:45:31;2.43;;;2.10;;
39858;SDS011;25528;47.810;12.960;2022-07-10T04:47:57;2.90;;;2.47;;
39858;SDS011;25528;47.810;12.960;2022-07-10T04:50:23;2.60;;;2.40;;
39858;SDS011;25528;47.810;12.960;2022-07-10T04:52:48;2.63;;;2.40;;
39858;SDS011;25528;47.810;12.960;2022-07-10T04:55:15;2.40;;;2.20;;
39858;SDS011;25528;47.810;12.960;2022-07-10T04:57:41;2.40;;;2.20;;
39858;SDS011;25528;47.810;12.960;2022-07-10T05:00:09;3.38;;;2.40;;
39858;SDS011;25528;47.810;12.960;2022-07-10T05:02:36;2.60;;;2.30;;
39858;SDS011;25528;47.810;12.960;2022-07-10T05:05:02;2.40;;;2.20;;
39858;SDS011;25528;47.810;12.960;2022-07-10T05:07:28;2.50;;;2.30;;
39858;SDS011;25528;47.810;12.960;2022-07-10T05:09:54;2.33;;;2.13;;
39858;SDS011;25528;47.810;12.960;2022-07-10T05:12:20;3.17;;;2.30;;
39858;SDS011;25528;47.810;12.960;2022-07-10T05:14:46;2.63;;;2.17;;
39858;SDS011;25528;47.810;12.960;2022-07-10T05:17:12;2.50;;;2.30;;
39858;SDS011;25528;47.810;12.960;2022-07-10T05:19:37;2.72;;;2.30;;
39858;SDS011;25528;47.810;12.960;2022-07-10T05:22:03;2.22;;;2.03;;
39858;SDS011;25528;47.810;12.960;2022-07-10T05:24:29;2.45;;;2.25;;
39858;SDS011;25528;47.810;12.960;2022-07-10T05:26:55;3.13;;;2.47;;
39858;SDS011;25528;47.810;12.960;2022-07-10T05:29:24;2.55;;;2.35;;
39858;SDS011;25528;47.810;12.960;2022-07-10T05:31:50;2.57;;;2.33;;
39858;SDS011;25528;47.810;12.960;2022-07-10T05:34:15;2.38;;;2.17;;
39858;SDS011;25528;47.810;12.960;2022-07-10T05:36:41;2.40;;;2.20;;
39858;SDS011;25528;47.810;12.960;2022-07-10T05:39:07;2.63;;;2.30;;
39858;SDS011;25528;47.810;12.960;2022-07-10T05:41:33;3.65;;;2.42;;
39858;SDS011;25528;47.810;12.960;2022-07-10T05:43:59;3.78;;;2.40;;
39858;SDS011;25528;47.810;12.960;2022-07-10T05:46:25;6.85;;;4.32;;
39858;SDS011;25528;47.810;12.960;2022-07-10T05:48:51;4.25;;;3.85;;
39858;SDS011;25528;47.810;12.960;2022-07-10T05:51:17;3.47;;;3.13;;
39858;SDS011;25528;47.810;12.960;2022-07-10T05:53:43;4.85;;;2.80;;
39858;SDS011;25528;47.810;12.960;2022-07-10T05:56:10;3.88;;;3.00;;
39858;SDS011;25528;47.810;12.960;2022-07-10T05:58:36;3.75;;;2.83;;
39858;SDS011;25528;47.810;12.960;2022-07-10T06:01:02;6.47;;;3.80;;
39858;SDS011;25528;47.810;12.960;2022-07-10T06:03:28;5.93;;;3.42;;
39858;SDS011;25528;47.810;12.960;2022-07-10T06:05:54;6.10;;;3.30;;
39858;SDS011;25528;47.810;12.960;2022-07-10T06:08:20;5.90;;;3.50;;
39858;SDS011;25528;47.810;12.960;2022-07-10T06:10:48;4.50;;;3.60;;
39858;SDS011;25528;47.810;12.960;2022-07-10T06:13:14;5.70;;;4.25;;
39858;SDS011;25528;47.810;12.960;2022-07-10T06:15:39;6.65;;;4.00;;
39858;SDS011;25528;47.810;12.960;2022-07-10T06:18:05;5.70;;;3.90;;
39858;SDS011;25528;47.810;12.960;2022-07-10T06:20:31;5.13;;;4.15;;
39858;SDS011;25528;47.810;12.960;2022-07-10T06:22:57;5.32;;;3.80;;
39858;SDS011;25528;47.810;12.960;2022-07-10T06:25:23;5.00;;;4.20;;
39858;SDS011;25528;47.810;12.960;2022-07-10T06:27:50;4.55;;;4.00;;
39858;SDS011;25528;47.810;12.960;2022-07-10T06:30:16;6.78;;;4.30;;
39858;SDS011;25528;47.810;12.960;2022-07-10T06:32:43;9.93;;;4.20;;
39858;SDS011;25528;47.810;12.960;2022-07-10T06:35:09;7.63;;;3.70;;
39858;SDS011;25528;47.810;12.960;2022-07-10T06:37:36;11.15;;;3.72;;
39858;SDS011;25528;47.810;12.960;2022-07-10T06:40:02;5.18;;;3.70;;
39858;SDS011;25528;47.810;12.960;2022-07-10T06:42:29;4.72;;;3.83;;
39858;SDS011;25528;47.810;12.960;2022-07-10T06:44:54;4.35;;;3.72;;
39858;SDS011;25528;47.810;12.960;2022-07-10T06:47:20;4.15;;;3.75;;
39858;SDS011;25528;47.810;12.960;2022-07-10T06:50:06;6.38;;;4.10;;
39858;SDS011;25528;47.810;12.960;2022-07-10T06:52:33;6.00;;;4.45;;
39858;SDS011;25528;47.810;12.960;2022-07-10T06:55:00;4.82;;;3.95;;
39858;SDS011;25528;47.810;12.960;2022-07-10T06:57:31;5.00;;;4.03;;
39858;SDS011;25528;47.810;12.960;2022-07-10T06:59:58;4.60;;;3.97;;
39858;SDS011;25528;47.810;12.960;2022-07-10T07:02:25;5.60;;;4.05;;
39858;SDS011;25528;47.810;12.960;2022-07-10T07:04:52;5.05;;;3.97;;
39858;SDS011;25528;47.810;12.960;2022-07-10T07:07:18;5.43;;;4.00;;
39858;SDS011;25528;47.810;12.960;2022-07-10T07:09:46;7.53;;;4.57;;
39858;SDS011;25528;47.810;12.960;2022-07-10T07:12:14;9.93;;;6.13;;
39858;SDS011;25528;47.810;12.960;2022-07-10T07:14:41;8.93;;;6.30;;
39858;SDS011;25528;47.810;12.960;2022-07-10T07:17:07;11.25;;;6.10;;
39858;SDS011;25528;47.810;12.960;2022-07-10T07:19:37;12.38;;;6.10;;
39858;SDS011;25528;47.810;12.960;2022-07-10T07:22:22;9.20;;;6.33;;
39858;SDS011;25528;47.810;12.960;2022-07-10T07:25:08;8.83;;;5.70;;
39858;SDS011;25528;47.810;12.960;2022-07-10T07:27:36;7.10;;;5.65;;
39858;SDS011;25528;47.810;12.960;2022-07-10T07:30:04;8.45;;;5.68;;
39858;SDS011;25528;47.810;12.960;2022-07-10T07:32:32;9.13;;;5.60;;
39858;SDS011;25528;47.810;12.960;2022-07-10T07:34:59;8.07;;;5.40;;
39858;SDS011;25528;47.810;12.960;2022-07-10T07:37:40;7.32;;;5.28;;
39858;SDS011;25528;47.810;12.960;2022-07-10T07:40:16;8.55;;;5.25;;
39858;SDS011;25528;47.810;12.960;2022-07-10T07:42:45;9.05;;;5.80;;
39858;SDS011;25528;47.810;12.960;2022-07-10T07:45:11;6.63;;;5.25;;
39858;SDS011;25528;47.810;12.960;2022-07-10T07:47:42;8.15;;;5.70;;
39858;SDS011;25528;47.810;12.960;2022-07-10T07:50:11;7.67;;;5.57;;
39858;SDS011;25528;47.810;12.960;2022-07-10T07:52:38;8.38;;;5.78;;
39858;SDS011;25528;47.810;12.960;2022-07-10T07:55:05;10.87;;;6.40;;
39858;SDS011;25528;47.810;12.960;2022-07-10T07:57:32;8.60;;;5.47;;
39858;SDS011;25528;47.810;12.960;2022-07-10T07:59:59;9.50;;;6.30;;
39858;SDS011;25528;47.810;12.960;2022-07-10T08:02:25;8.38;;;5.85;;
39858;SDS011;25528;47.810;12.960;2022-07-10T08:04:52;8.30;;;5.93;;
39858;SDS011;25528;47.810;12.960;2022-07-10T08:07:19;6.67;;;5.40;;
39858;SDS011;25528;47.810;12.960;2022-07-10T08:09:45;6.97;;;5.63;;
39858;SDS011;25528;47.810;12.960;2022-07-10T08:12:11;7.17;;;5.40;;
39858;SDS011;25528;47.810;12.960;2022-07-10T08:14:37;7.95;;;5.53;;
39858;SDS011;25528;47.810;12.960;2022-07-10T08:17:03;7.25;;;5.25;;
39858;SDS011;25528;47.810;12.960;2022-07-10T08:19:30;7.85;;;5.20;;
39858;SDS011;25528;47.810;12.960;2022-07-10T08:21:56;7.68;;;5.20;;
39858;SDS011;25528;47.810;12.960;2022-07-10T08:24:22;6.63;;;5.03;;
39858;SDS011;25528;47.810;12.960;2022-07-10T08:26:49;6.47;;;5.13;;
39858;SDS011;25528;47.810;12.960;2022-07-10T08:29:16;7.18;;;5.35;;
39858;SDS011;25528;47.810;12.960;2022-07-10T08:31:43;6.00;;;5.10;;
39858;SDS011;25528;47.810;12.960;2022-07-10T08:34:10;6.85;;;5.20;;
39858;SDS011;25528;47.810;12.960;2022-07-10T08:36:36;8.13;;;5.32;;
39858;SDS011;25528;47.810;12.960;2022-07-10T08:39:02;8.47;;;5.23;;
39858;SDS011;25528;47.810;12.960;2022-07-10T08:41:28;7.47;;;5.00;;
39858;SDS011;25528;47.810;12.960;2022-07-10T08:43:56;6.82;;;5.05;;
39858;SDS011;25528;47.810;12.960;2022-07-10T08:46:23;8.38;;;5.35;;
39858;SDS011;25528;47.810;12.960;2022-07-10T08:48:50;6.65;;;5.07;;
39858;SDS011;25528;47.810;12.960;2022-07-10T08:51:23;6.72;;;4.97;;
39858;SDS011;25528;47.810;12.960;2022-07-10T08:54:14;8.27;;;5.25;;
39858;SDS011;25528;47.810;12.960;2022-07-10T08:56:41;7.57;;;4.88;;
39858;SDS011;25528;47.810;12.960;2022-07-10T08:59:07;6.95;;;5.13;;
39858;SDS011;25528;47.810;12.960;2022-07-10T09:01:34;7.38;;;5.20;;
39858;SDS011;25528;47.810;12.960;2022-07-10T09:04:01;8.27;;;5.28;;
39858;SDS011;25528;47.810;12.960;2022-07-10T09:06:27;7.50;;;5.35;;
39858;SDS011;25528;47.810;12.960;2022-07-10T09:09:00;6.70;;;5.00;;
39858;SDS011;25528;47.810;12.960;2022-07-10T09:11:29;6.97;;;4.93;;
39858;SDS011;25528;47.810;12.960;2022-07-10T09:16:27;6.20;;;4.65;;
39858;SDS011;25528;47.810;12.960;2022-07-10T09:18:55;6.35;;;4.63;;
39858;SDS011;25528;47.810;12.960;2022-07-10T09:21:22;6.93;;;4.72;;
39858;SDS011;25528;47.810;12.960;2022-07-10T09:23:49;6.90;;;4.60;;
39858;SDS011;25528;47.810;12.960;2022-07-10T09:26:16;5.88;;;4.45;;
39858;SDS011;25528;47.810;12.960;2022-07-10T09:28:43;5.40;;;4.40;;
39858;SDS011;25528;47.810;12.960;2022-07-10T09:31:09;5.78;;;4.63;;
39858;SDS011;25528;47.810;12.960;2022-07-10T09:33:35;6.10;;;4.20;;
39858;SDS011;25528;47.810;12.960;2022-07-10T09:36:09;5.93;;;4.40;;
39858;SDS011;25528;47.810;12.960;2022-07-10T09:44:00;5.82;;;4.60;;
39858;SDS011;25528;47.810;12.960;2022-07-10T09:46:34;5.00;;;4.22;;
39858;SDS011;25528;47.810;12.960;2022-07-10T09:49:02;4.88;;;4.20;;
39858;SDS011;25528;47.810;12.960;2022-07-10T09:51:42;5.70;;;4.40;;
39858;SDS011;25528;47.810;12.960;2022-07-10T09:54:10;5.18;;;4.20;;
39858;SDS011;25528;47.810;12.960;2022-07-10T09:56:45;5.53;;;4.05;;
39858;SDS011;25528;47.810;12.960;2022-07-10T09:59:15;4.90;;;4.07;;
39858;SDS011;25528;47.810;12.960;2022-07-10T10:01:44;5.35;;;4.40;;
39858;SDS011;25528;47.810;12.960;2022-07-10T10:04:19;5.10;;;4.40;;
39858;SDS011;25528;47.810;12.960;2022-07-10T10:06:50;4.93;;;4.25;;
39858;SDS011;25528;47.810;12.960;2022-07-10T10:09:38;5.60;;;4.07;;
39858;SDS011;25528;47.810;12.960;2022-07-10T10:14:42;4.40;;;4.00;;
39858;SDS011;25528;47.810;12.960;2022-07-10T10:17:09;5.97;;;4.07;;
39858;SDS011;25528;47.810;12.960;2022-07-10T10:19:38;6.90;;;3.92;;
39858;SDS011;25528;47.810;12.960;2022-07-10T10:22:24;5.63;;;3.83;;
39858;SDS011;25528;47.810;12.960;2022-07-10T10:24:51;6.88;;;4.03;;
39858;SDS011;25528;47.810;12.960;2022-07-10T10:27:18;5.30;;;3.78;;
39858;SDS011;25528;47.810;12.960;2022-07-10T10:29:46;4.93;;;3.33;;
39858;SDS011;25528;47.810;12.960;2022-07-10T10:32:13;5.57;;;3.50;;
39858;SDS011;25528;47.810;12.960;2022-07-10T10:34:40;5.53;;;3.70;;
39858;SDS011;25528;47.810;12.960;2022-07-10T10:37:32;4.68;;;3.30;;
39858;SDS011;25528;47.810;12.960;2022-07-10T10:40:02;6.93;;;3.40;;
39858;SDS011;25528;47.810;12.960;2022-07-10T10:42:34;3.83;;;3.20;;
39858;SDS011;25528;47.810;12.960;2022-07-10T10:47:58;3.80;;;3.30;;
39858;SDS011;25528;47.810;12.960;2022-07-10T10:50:36;5.43;;;3.90;;
39858;SDS011;25528;47.810;12.960;2022-07-10T10:53:13;5.65;;;3.25;;
39858;SDS011;25528;47.810;12.960;2022-07-10T10:55:41;5.95;;;3.22;;
39858;SDS011;25528;47.810;12.960;2022-07-10T10:58:43;4.38;;;3.20;;
39858;SDS011;25528;47.810;12.960;2022-07-10T11:06:48;6.50;;;3.40;;
39858;SDS011;25528;47.810;12.960;2022-07-10T11:11:59;7.68;;;3.20;;
39858;SDS011;25528;47.810;12.960;2022-07-10T11:14:27;8.80;;;3.15;;
39858;SDS011;25528;47.810;12.960;2022-07-10T11:16:54;5.07;;;3.03;;
39858;SDS011;25528;47.810;12.960;2022-07-10T11:19:24;7.07;;;3.30;;
39858;SDS011;25528;47.810;12.960;2022-07-10T11:21:58;5.27;;;3.03;;
39858;SDS011;25528;47.810;12.960;2022-07-10T11:24:40;8.00;;;3.00;;
39858;SDS011;25528;47.810;12.960;2022-07-10T11:30:16;6.40;;;2.95;;
39858;SDS011;25528;47.810;12.960;2022-07-10T11:32:43;4.30;;;3.10;;
39858;SDS011;25528;47.810;12.960;2022-07-10T11:35:12;4.78;;;3.30;;
39858;SDS011;25528;47.810;12.960;2022-07-10T11:37:53;6.90;;;3.20;;
39858;SDS011;25528;47.810;12.960;2022-07-10T11:40:19;6.07;;;3.03;;
39858;SDS011;25528;47.810;12.960;2022-07-10T11:45:25;5.75;;;2.80;;
39858;SDS011;25528;47.810;12.960;2022-07-10T11:47:54;5.00;;;2.83;;
39858;SDS011;25528;47.810;12.960;2022-07-10T11:50:21;6.30;;;3.15;;
39858;SDS011;25528;47.810;12.960;2022-07-10T11:52:47;4.72;;;3.20;;
39858;SDS011;25528;47.810;12.960;2022-07-10T11:55:16;7.63;;;3.20;;
39858;SDS011;25528;47.810;12.960;2022-07-10T11:57:43;10.63;;;3.60;;
39858;SDS011;25528;47.810;12.960;2022-07-10T12:00:29;8.55;;;3.22;;
39858;SDS011;25528;47.810;12.960;2022-07-10T12:02:56;6.03;;;3.10;;
39858;SDS011;25528;47.810;12.960;2022-07-10T12:05:41;6.90;;;3.38;;
39858;SDS011;25528;47.810;12.960;2022-07-10T12:08:07;5.33;;;3.20;;
39858;SDS011;25528;47.810;12.960;2022-07-10T12:10:33;6.57;;;3.20;;
39858;SDS011;25528;47.810;12.960;2022-07-10T12:13:18;6.60;;;2.80;;
39858;SDS011;25528;47.810;12.960;2022-07-10T12:15:46;7.00;;;2.87;;
39858;SDS011;25528;47.810;12.960;2022-07-10T12:18:16;4.75;;;2.85;;
39858;SDS011;25528;47.810;12.960;2022-07-10T12:20:44;4.35;;;2.83;;
39858;SDS011;25528;47.810;12.960;2022-07-10T12:23:14;3.67;;;2.67;;
39858;SDS011;25528;47.810;12.960;2022-07-10T12:25:42;3.78;;;2.50;;
39858;SDS011;25528;47.810;12.960;2022-07-10T12:28:09;4.72;;;2.70;;
39858;SDS011;25528;47.810;12.960;2022-07-10T12:30:37;4.15;;;2.60;;
39858;SDS011;25528;47.810;12.960;2022-07-10T12:33:14;4.82;;;2.60;;
39858;SDS011;25528;47.810;12.960;2022-07-10T12:35:56;3.30;;;2.50;;
39858;SDS011;25528;47.810;12.960;2022-07-10T12:38:27;5.10;;;2.50;;
39858;SDS011;25528;47.810;12.960;2022-07-10T12:41:08;3.88;;;2.45;;
39858;SDS011;25528;47.810;12.960;2022-07-10T12:43:36;3.22;;;2.45;;
39858;SDS011;25528;47.810;12.960;2022-07-10T12:46:10;3.83;;;2.65;;
39858;SDS011;25528;47.810;12.960;2022-07-10T12:48:59;3.55;;;2.50;;
39858;SDS011;25528;47.810;12.960;2022-07-10T12:51:28;7.10;;;2.75;;
39858;SDS011;25528;47.810;12.960;2022-07-10T12:53:55;3.97;;;2.65;;
39858;SDS011;25528;47.810;12.960;2022-07-10T12:56:26;4.00;;;2.33;;
39858;SDS011;25528;47.810;12.960;2022-07-10T12:58:53;4.88;;;2.50;;
39858;SDS011;25528;47.810;12.960;2022-07-10T13:01:19;3.28;;;2.10;;
39858;SDS011;25528;47.810;12.960;2022-07-10T13:03:46;2.40;;;2.00;;
39858;SDS011;25528;47.810;12.960;2022-07-10T13:06:25;3.85;;;2.25;;
39858;SDS011;25528;47.810;12.960;2022-07-10T13:08:53;2.97;;;1.98;;
39858;SDS011;25528;47.810;12.960;2022-07-10T13:11:21;2.25;;;1.98;;
39858;SDS011;25528;47.810;12.960;2022-07-10T13:13:48;3.15;;;2.00;;
39858;SDS011;25528;47.810;12.960;2022-07-10T13:16:14;3.35;;;2.10;;
39858;SDS011;25528;47.810;12.960;2022-07-10T13:18:44;3.20;;;2.20;;
39858;SDS011;25528;47.810;12.960;2022-07-10T13:21:10;3.17;;;2.00;;
39858;SDS011;25528;47.810;12.960;2022-07-10T13:23:37;3.65;;;2.40;;
39858;SDS011;25528;47.810;12.960;2022-07-10T13:26:04;3.35;;;2.50;;
39858;SDS011;25528;47.810;12.960;2022-07-10T13:28:35;4.28;;;2.17;;
39858;SDS011;25528;47.810;12.960;2022-07-10T13:31:01;4.27;;;1.90;;
39858;SDS011;25528;47.810;12.960;2022-07-10T13:33:27;2.63;;;2.10;;
39858;SDS011;25528;47.810;12.960;2022-07-10T13:35:53;3.83;;;2.30;;
39858;SDS011;25528;47.810;12.960;2022-07-10T13:38:22;9.23;;;2.47;;
39858;SDS011;25528;47.810;12.960;2022-07-10T13:40:51;4.33;;;2.00;;
39858;SDS011;25528;47.810;12.960;2022-07-10T13:43:17;2.97;;;2.08;;
39858;SDS011;25528;47.810;12.960;2022-07-10T13:45:44;6.87;;;2.40;;
39858;SDS011;25528;47.810;12.960;2022-07-10T13:48:11;3.67;;;2.03;;
39858;SDS011;25528;47.810;12.960;2022-07-10T13:50:41;2.67;;;1.95;;
39858;SDS011;25528;47.810;12.960;2022-07-10T13:53:08;3.43;;;2.00;;
39858;SDS011;25528;47.810;12.960;2022-07-10T13:55:35;3.20;;;2.22;;
39858;SDS011;25528;47.810;12.960;2022-07-10T13:58:01;3.20;;;2.15;;
39858;SDS011;25528;47.810;12.960;2022-07-10T14:00:28;2.78;;;2.35;;
39858;SDS011;25528;47.810;12.960;2022-07-10T14:02:54;4.20;;;2.10;;
39858;SDS011;25528;47.810;12.960;2022-07-10T14:05:22;3.67;;;1.92;;
39858;SDS011;25528;47.810;12.960;2022-07-10T14:07:48;3.55;;;1.90;;
39858;SDS011;25528;47.810;12.960;2022-07-10T14:10:14;3.58;;;1.80;;
39858;SDS011;25528;47.810;12.960;2022-07-10T14:12:40;3.25;;;2.00;;
39858;SDS011;25528;47.810;12.960;2022-07-10T14:15:07;3.22;;;2.30;;
39858;SDS011;25528;47.810;12.960;2022-07-10T14:17:35;2.83;;;2.50;;
39858;SDS011;25528;47.810;12.960;2022-07-10T14:20:02;4.22;;;3.00;;
39858;SDS011;25528;47.810;12.960;2022-07-10T14:22:28;5.90;;;2.92;;
39858;SDS011;25528;47.810;12.960;2022-07-10T14:24:55;4.43;;;3.13;;
39858;SDS011;25528;47.810;12.960;2022-07-10T14:27:25;4.20;;;3.53;;
39858;SDS011;25528;47.810;12.960;2022-07-10T14:29:52;3.63;;;3.22;;
39858;SDS011;25528;47.810;12.960;2022-07-10T14:32:19;4.75;;;3.05;;
39858;SDS011;25528;47.810;12.960;2022-07-10T14:34:45;5.30;;;2.78;;
39858;SDS011;25528;47.810;12.960;2022-07-10T14:37:11;3.38;;;2.50;;
39858;SDS011;25528;47.810;12.960;2022-07-10T14:39:37;2.95;;;2.30;;
39858;SDS011;25528;47.810;12.960;2022-07-10T14:42:03;3.90;;;2.78;;
39858;SDS011;25528;47.810;12.960;2022-07-10T14:44:32;5.60;;;3.10;;
39858;SDS011;25528;47.810;12.960;2022-07-10T14:46:58;7.88;;;4.07;;
39858;SDS011;25528;47.810;12.960;2022-07-10T14:49:24;7.72;;;4.28;;
39858;SDS011;25528;47.810;12.960;2022-07-10T14:51:50;6.82;;;4.10;;
39858;SDS011;25528;47.810;12.960;2022-07-10T14:54:16;6.82;;;3.72;;
39858;SDS011;25528;47.810;12.960;2022-07-10T14:56:43;4.47;;;3.10;;
39858;SDS011;25528;47.810;12.960;2022-07-10T14:59:09;5.20;;;3.50;;
39858;SDS011;25528;47.810;12.960;2022-07-10T15:01:35;4.65;;;2.95;;
39858;SDS011;25528;47.810;12.960;2022-07-10T15:04:01;4.37;;;2.80;;
39858;SDS011;25528;47.810;12.960;2022-07-10T15:06:26;5.32;;;2.80;;